createdAt,value
2022-12-19T00:01:16.452Z,4.00
2022-12-19T00:03:48.012Z,3.90
2022-12-19T00:06:20.388Z,4.00
2022-12-19T00:08:52.651Z,4.00
2022-12-19T00:11:25.132Z,4.00
2022-12-19T00:13:58.351Z,4.10
2022-12-19T00:16:30.281Z,4.20
2022-12-19T00:19:03.653Z,4.10
2022-12-19T00:21:36.194Z,4.20
2022-12-19T00:24:18.088Z,4.30
2022-12-19T00:26:51.733Z,4.20
2022-12-19T00:29:24.606Z,4.20
2022-12-19T00:31:55.690Z,4.20
2022-12-19T00:34:26.053Z,4.30
2022-12-19T00:36:56.351Z,4.30
2022-12-19T00:39:26.810Z,4.30
2022-12-19T00:41:57.164Z,4.30
2022-12-19T00:44:30.136Z,4.40
2022-12-19T00:47:02.082Z,4.40
2022-12-19T00:49:33.699Z,4.50
2022-12-19T00:52:04.217Z,4.50
2022-12-19T00:54:34.593Z,4.50
2022-12-19T00:57:05.380Z,4.50
2022-12-19T00:59:38.332Z,4.50
2022-12-19T01:02:08.785Z,4.70
2022-12-19T01:04:41.766Z,4.60
2022-12-19T01:07:15.953Z,4.70
2022-12-19T01:09:46.238Z,4.70
2022-12-19T01:12:30.425Z,4.70
2022-12-19T01:15:05.291Z,4.70
2022-12-19T01:17:44.294Z,4.70
2022-12-19T01:20:18.170Z,4.70
2022-12-19T01:23:00.904Z,4.90
2022-12-19T01:25:31.537Z,4.80
2022-12-19T01:28:01.845Z,4.90
2022-12-19T01:30:38.531Z,4.80
2022-12-19T01:33:10.298Z,4.90
2022-12-19T01:35:40.752Z,4.90
2022-12-19T01:38:14.964Z,4.90
2022-12-19T01:40:52.663Z,4.90
2022-12-19T01:43:24.235Z,5.00
2022-12-19T01:46:00.419Z,4.90
2022-12-19T01:48:36.454Z,5.00
2022-12-19T01:51:13.402Z,5.00
2022-12-19T01:53:48.661Z,5.10
2022-12-19T01:56:22.345Z,5.10
2022-12-19T01:59:05.932Z,5.10
2022-12-19T02:01:51.624Z,5.10
2022-12-19T02:04:28.911Z,5.30
2022-12-19T02:07:15.095Z,5.20
2022-12-19T02:09:52.441Z,5.40
2022-12-19T02:12:37.011Z,5.40
2022-12-19T02:15:10.591Z,5.30
2022-12-19T02:17:57.325Z,5.40
2022-12-19T02:21:01.652Z,5.40
2022-12-19T02:24:03.015Z,5.50
2022-12-19T02:26:59.511Z,5.50
2022-12-19T02:30:03.584Z,5.50
2022-12-19T02:32:50.457Z,5.70
2022-12-19T02:35:29.891Z,5.70
2022-12-19T02:38:10.690Z,5.70
2022-12-19T02:40:48.570Z,5.80
2022-12-19T02:43:29.413Z,5.80
2022-12-19T02:46:00.762Z,5.90
2022-12-19T02:48:35.209Z,5.80
2022-12-19T02:51:07.409Z,5.90
2022-12-19T02:53:41.992Z,5.90
2022-12-19T02:56:40.515Z,5.90
2022-12-19T02:59:38.583Z,5.90
2022-12-19T03:02:20.663Z,5.90
2022-12-19T03:05:02.472Z,5.90
2022-12-19T03:07:39.953Z,5.90
2022-12-19T03:10:19.374Z,6.00
2022-12-19T03:12:55.421Z,6.10
2022-12-19T03:15:27.495Z,6.00
2022-12-19T03:18:00.931Z,6.00
2022-12-19T03:20:42.623Z,6.00
2022-12-19T03:23:13.198Z,6.00
2022-12-19T03:25:46.321Z,6.00
2022-12-19T03:28:21.036Z,6.00
2022-12-19T03:30:52.214Z,6.00
2022-12-19T03:33:24.078Z,6.10
2022-12-19T03:35:59.168Z,6.10
2022-12-19T03:38:30.935Z,6.10
2022-12-19T03:41:02.884Z,6.10
2022-12-19T03:43:32.531Z,6.10
2022-12-19T03:46:07.548Z,6.20
2022-12-19T03:48:44.964Z,6.20
2022-12-19T03:51:26.496Z,6.20
2022-12-19T03:54:03.520Z,6.20
2022-12-19T03:56:39.210Z,6.30
2022-12-19T03:59:12.567Z,6.30
2022-12-19T04:01:44.089Z,6.30
2022-12-19T04:04:15.403Z,6.30
2022-12-19T04:06:49.914Z,6.30
2022-12-19T04:09:22.818Z,6.30
2022-12-19T04:11:56.505Z,6.50
2022-12-19T04:14:31.339Z,6.40
2022-12-19T04:17:08.315Z,6.40
2022-12-19T04:19:43.986Z,6.50
2022-12-19T04:22:20.944Z,6.60
2022-12-19T04:24:53.713Z,6.50
2022-12-19T04:27:25.015Z,6.50
2022-12-19T04:29:58.926Z,6.60
2022-12-19T04:32:31.673Z,6.50
2022-12-19T04:35:01.992Z,6.60
2022-12-19T04:37:35.325Z,6.60
2022-12-19T04:40:06.183Z,6.60
2022-12-19T04:42:36.573Z,6.70
2022-12-19T04:45:09.602Z,6.60
2022-12-19T04:47:40.282Z,6.60
2022-12-19T04:50:11.233Z,6.60
2022-12-19T04:52:44.128Z,6.60
2022-12-19T04:55:14.447Z,6.70
2022-12-19T04:57:44.775Z,6.70
2022-12-19T05:00:16.856Z,6.70
2022-12-19T05:02:47.645Z,6.70
2022-12-19T05:05:18.976Z,6.80
2022-12-19T05:07:52.058Z,6.80
2022-12-19T05:10:22.511Z,6.80
2022-12-19T05:12:52.888Z,6.80
2022-12-19T05:15:23.744Z,6.80
2022-12-19T05:17:54.136Z,6.80
2022-12-19T05:20:24.473Z,6.80
2022-12-19T05:22:57.369Z,6.80
2022-12-19T05:25:27.659Z,6.80
2022-12-19T05:27:57.971Z,6.90
2022-12-19T05:30:28.442Z,6.90
2022-12-19T05:32:58.693Z,6.90
2022-12-19T05:35:29.053Z,6.90
2022-12-19T05:38:01.998Z,6.90
2022-12-19T05:40:32.663Z,7.00
2022-12-19T05:43:03.069Z,7.00
2022-12-19T05:45:33.381Z,7.00
2022-12-19T05:48:03.725Z,7.10
2022-12-19T05:50:34.305Z,7.10
2022-12-19T05:53:14.950Z,7.10
2022-12-19T05:55:45.594Z,7.00
2022-12-19T05:58:15.987Z,7.10
2022-12-19T06:00:49.112Z,7.10
2022-12-19T06:03:19.466Z,7.10
2022-12-19T06:05:49.778Z,7.20
2022-12-19T06:08:22.723Z,7.10
2022-12-19T06:10:53.107Z,7.20
2022-12-19T06:13:25.156Z,7.10
2022-12-19T06:16:00.923Z,7.10
2022-12-19T06:18:31.941Z,7.20
2022-12-19T06:21:03.465Z,7.20
2022-12-19T06:23:38.922Z,7.20
2022-12-19T06:26:16.869Z,7.20
2022-12-19T06:28:49.567Z,7.30
2022-12-19T06:31:21.537Z,7.20
2022-12-19T06:33:52.569Z,7.30
2022-12-19T06:36:24.871Z,7.20
2022-12-19T06:39:00.161Z,7.30
2022-12-19T06:41:43.474Z,7.30
2022-12-19T06:44:15.618Z,7.30
2022-12-19T06:46:46.776Z,7.40
2022-12-19T06:49:17.100Z,7.40
2022-12-19T06:51:47.487Z,7.30
2022-12-19T06:54:20.450Z,7.40
2022-12-19T06:56:50.824Z,7.40
2022-12-19T06:59:21.333Z,7.40
2022-12-19T07:02:00.070Z,7.40
2022-12-19T07:04:33.705Z,7.40
2022-12-19T07:07:04.108Z,7.40
2022-12-19T07:09:38.050Z,7.40
2022-12-19T07:12:08.890Z,7.40
2022-12-19T07:14:39.519Z,7.50
2022-12-19T07:17:10.129Z,7.50
2022-12-19T07:19:41.401Z,7.50
2022-12-19T07:22:12.960Z,7.50
2022-12-19T07:24:46.339Z,7.60
2022-12-19T07:27:16.661Z,7.50
2022-12-19T07:29:47.016Z,7.60
2022-12-19T07:32:17.422Z,7.60
2022-12-19T07:34:47.753Z,7.60
2022-12-19T07:37:18.140Z,7.70
2022-12-19T07:39:52.818Z,7.60
2022-12-19T07:42:24.574Z,7.60
2022-12-19T07:44:56.483Z,7.60
2022-12-19T07:47:27.752Z,7.50
2022-12-19T07:49:58.037Z,7.60
2022-12-19T07:52:28.783Z,7.60
2022-12-19T07:55:01.815Z,7.60
2022-12-19T07:57:32.270Z,7.60
2022-12-19T08:00:02.618Z,7.60
2022-12-19T08:02:42.945Z,7.60
2022-12-19T08:05:14.503Z,7.60
2022-12-19T08:07:44.836Z,7.50
2022-12-19T08:10:17.973Z,7.60
2022-12-19T08:12:48.567Z,7.70
2022-12-19T08:15:19.313Z,7.70
2022-12-19T08:17:49.837Z,7.70
2022-12-19T08:20:20.350Z,7.80
2022-12-19T08:22:51.602Z,7.70
2022-12-19T08:25:24.532Z,7.80
2022-12-19T08:27:54.860Z,7.80
2022-12-19T08:30:25.177Z,7.80
2022-12-19T08:32:55.557Z,7.80
2022-12-19T08:35:25.889Z,7.80
2022-12-19T08:37:56.307Z,7.80
2022-12-19T08:40:29.246Z,7.80
2022-12-19T08:42:59.600Z,7.80
2022-12-19T08:45:30.198Z,7.90
2022-12-19T08:48:00.553Z,7.80
2022-12-19T08:50:30.886Z,7.90
2022-12-19T08:53:01.198Z,7.90
2022-12-19T08:55:34.229Z,7.90
2022-12-19T08:58:04.665Z,8.00
2022-12-19T09:00:35.048Z,8.00
2022-12-19T09:03:05.630Z,8.00
2022-12-19T09:06:04.534Z,8.00
2022-12-19T09:08:29.000Z,8.10
2022-12-19T09:14:05.243Z,8.10
2022-12-19T09:16:35.608Z,8.10
2022-12-19T09:19:05.981Z,8.10
2022-12-19T09:21:36.381Z,8.10
2022-12-19T09:24:08.123Z,8.10
2022-12-19T09:26:42.317Z,8.10
2022-12-19T09:29:20.357Z,8.10
2022-12-19T09:31:55.487Z,8.30
2022-12-19T09:34:37.809Z,8.30
2022-12-19T09:37:16.024Z,8.20
2022-12-19T09:39:48.497Z,8.10
2022-12-19T09:42:41.792Z,8.20
2022-12-19T09:45:41.372Z,8.20
2022-12-19T09:48:23.544Z,8.20
2022-12-19T09:51:10.544Z,8.20
2022-12-19T09:53:54.372Z,8.20
2022-12-19T09:56:26.603Z,8.20
2022-12-19T09:59:05.906Z,8.20
2022-12-19T10:01:40.749Z,8.20
2022-12-19T10:04:15.816Z,8.20
2022-12-19T10:07:14.498Z,8.20
2022-12-19T10:12:10.697Z,8.20
2022-12-19T10:12:50.959Z,8.30
2022-12-19T10:15:31.598Z,8.20
2022-12-19T10:18:31.388Z,8.30
2022-12-19T10:21:08.805Z,8.30
2022-12-19T10:23:56.532Z,8.30
2022-12-19T10:26:33.047Z,8.30
2022-12-19T10:29:16.186Z,8.40
2022-12-19T10:31:57.895Z,8.30
2022-12-19T10:34:38.517Z,8.30
2022-12-19T10:37:25.590Z,8.30
2022-12-19T10:40:14.404Z,8.40
2022-12-19T10:42:53.951Z,8.30
2022-12-19T10:45:26.820Z,8.40
2022-12-19T10:48:01.636Z,8.40
2022-12-19T10:50:33.050Z,8.40
2022-12-19T10:53:11.421Z,8.50
2022-12-19T10:55:45.793Z,8.50
2022-12-19T10:58:28.283Z,8.50
2022-12-19T11:01:08.779Z,8.60
2022-12-19T11:03:42.949Z,8.60
2022-12-19T11:06:43.298Z,8.60
2022-12-19T11:09:35.291Z,8.70
2022-12-19T11:16:13.455Z,8.70
2022-12-19T11:19:13.451Z,8.80
2022-12-19T11:26:32.415Z,8.80
2022-12-19T11:29:24.898Z,8.90
2022-12-19T11:29:43.287Z,8.90
2022-12-19T11:29:46.625Z,9.00
2022-12-19T11:33:21.348Z,9.00
2022-12-19T11:35:53.397Z,9.00
2022-12-19T11:38:42.687Z,9.10
2022-12-19T11:41:19.605Z,9.00
2022-12-19T11:43:55.890Z,9.10
2022-12-19T11:46:37.741Z,9.10
2022-12-19T11:49:16.715Z,9.10
2022-12-19T11:51:53.913Z,9.20
2022-12-19T11:54:31.688Z,9.20
2022-12-19T11:57:02.792Z,9.20
2022-12-19T11:59:35.459Z,9.30
2022-12-19T12:02:27.345Z,9.20
2022-12-19T12:05:36.979Z,9.30
2022-12-19T12:10:55.451Z,9.20
2022-12-19T12:19:48.626Z,9.20
2022-12-19T12:21:46.692Z,9.40
2022-12-19T12:31:13.893Z,9.30
2022-12-19T12:31:20.597Z,9.40
2022-12-19T12:31:23.833Z,9.40
2022-12-19T12:31:52.739Z,9.50
2022-12-19T12:32:02.055Z,9.40
2022-12-19T12:35:33.126Z,9.40
2022-12-19T12:38:43.396Z,9.50
2022-12-19T12:41:47.958Z,9.50
2022-12-19T12:44:29.773Z,9.50
2022-12-19T12:47:11.880Z,9.60
2022-12-19T12:49:45.327Z,9.60
2022-12-19T12:52:21.401Z,9.70
2022-12-19T12:54:53.490Z,9.70
2022-12-19T12:57:37.958Z,9.70
2022-12-19T13:00:23.450Z,9.70
2022-12-19T13:02:58.648Z,9.70
2022-12-19T13:05:38.812Z,9.80
2022-12-19T13:08:41.631Z,9.80
2022-12-19T13:11:38.360Z,9.80
2022-12-19T13:14:09.536Z,9.80
2022-12-19T13:16:56.317Z,9.80
2022-12-19T13:19:29.475Z,9.80
2022-12-19T13:22:19.607Z,9.80
2022-12-19T13:24:53.017Z,9.90
2022-12-19T13:27:44.244Z,9.90
2022-12-19T13:30:21.009Z,9.80
2022-12-19T13:33:17.545Z,9.90
2022-12-19T13:36:38.031Z,9.90
2022-12-19T13:39:47.688Z,9.90
2022-12-19T13:41:58.004Z,10.00
2022-12-19T13:44:29.365Z,9.90
2022-12-19T13:46:59.890Z,9.90
2022-12-19T13:49:36.133Z,9.90
2022-12-19T13:52:07.484Z,9.90
2022-12-19T13:54:48.702Z,9.90
2022-12-19T13:57:27.169Z,9.90
2022-12-19T14:00:01.396Z,9.90
2022-12-19T14:02:44.395Z,9.90
2022-12-19T14:06:14.232Z,9.90
2022-12-19T14:08:23.710Z,10.00
2022-12-19T14:11:44.155Z,10.00
2022-12-19T14:14:08.202Z,10.00
2022-12-19T14:16:45.851Z,10.00
2022-12-19T14:19:25.102Z,10.00
2022-12-19T14:22:20.773Z,10.00
2022-12-19T14:26:06.599Z,10.00
2022-12-19T14:28:17.936Z,10.00
2022-12-19T14:30:49.779Z,10.00
2022-12-19T14:33:46.945Z,10.00
2022-12-19T14:36:26.585Z,10.00
2022-12-19T14:39:26.417Z,10.10
2022-12-19T14:42:06.587Z,10.00
2022-12-19T14:53:34.017Z,10.00
2022-12-19T14:54:08.508Z,10.10
2022-12-19T14:54:14.515Z,10.00
2022-12-19T14:54:23.582Z,10.00
2022-12-19T14:56:40.712Z,10.00
2022-12-19T14:59:33.314Z,10.00
2022-12-19T15:02:13.297Z,9.90
2022-12-19T15:05:05.713Z,10.00
2022-12-19T15:07:37.772Z,9.90
2022-12-19T15:11:07.820Z,9.90
2022-12-19T15:14:51.166Z,9.90
2022-12-19T15:16:28.639Z,9.90
2022-12-19T15:19:00.508Z,9.90
2022-12-19T15:21:32.138Z,9.90
2022-12-19T15:24:02.541Z,9.90
2022-12-19T15:26:35.632Z,9.90
2022-12-19T15:29:19.859Z,10.00
2022-12-19T15:31:52.495Z,9.90
2022-12-19T15:34:35.433Z,9.90
2022-12-19T15:37:07.348Z,9.90
2022-12-19T15:39:37.702Z,9.90
2022-12-19T15:42:09.205Z,9.90
2022-12-19T15:44:44.793Z,9.80
2022-12-19T15:47:20.132Z,9.90
2022-12-19T15:49:50.585Z,9.80
2022-12-19T15:52:22.410Z,9.80
2022-12-19T15:54:52.705Z,9.90
2022-12-19T15:57:31.121Z,9.90
2022-12-19T16:00:07.991Z,9.90
2022-12-19T16:03:21.198Z,9.90
2022-12-19T16:05:32.082Z,9.90
2022-12-19T16:08:02.483Z,9.80
2022-12-19T16:10:32.998Z,9.80
2022-12-19T16:13:03.338Z,9.90
2022-12-19T16:15:39.707Z,9.90
2022-12-19T16:18:14.536Z,9.90
2022-12-19T16:20:45.330Z,9.90
2022-12-19T16:23:16.375Z,9.90
2022-12-19T16:25:49.785Z,9.90
2022-12-19T16:28:22.989Z,9.90
2022-12-19T16:30:56.312Z,9.90
2022-12-19T16:33:28.969Z,9.90
2022-12-19T16:36:05.202Z,10.00
2022-12-19T16:38:36.528Z,10.00
2022-12-19T16:41:07.285Z,10.10
2022-12-19T16:43:40.865Z,10.00
2022-12-19T16:46:20.654Z,10.10
2022-12-19T16:48:51.461Z,10.10
2022-12-19T16:51:23.810Z,10.10
2022-12-19T16:53:56.519Z,10.10
2022-12-19T16:56:33.803Z,10.00
2022-12-19T16:59:06.281Z,10.10
2022-12-19T17:01:39.446Z,10.00
2022-12-19T17:04:09.940Z,10.10
2022-12-19T17:06:41.356Z,10.10
2022-12-19T17:09:15.875Z,10.10
2022-12-19T17:11:48.956Z,10.10
2022-12-19T17:14:22.108Z,10.10
2022-12-19T17:16:58.607Z,10.20
2022-12-19T17:19:34.911Z,10.20
2022-12-19T17:22:05.363Z,10.20
2022-12-19T17:24:35.738Z,10.20
2022-12-19T17:27:06.204Z,10.20
2022-12-19T17:29:36.636Z,10.30
2022-12-19T17:32:10.418Z,10.20
2022-12-19T17:34:40.851Z,10.20
2022-12-19T17:37:19.414Z,10.20
2022-12-19T17:39:49.425Z,10.30
2022-12-19T17:42:23.869Z,10.30
2022-12-19T17:44:54.455Z,10.30
2022-12-19T17:47:28.462Z,10.30
2022-12-19T17:49:59.483Z,10.30
2022-12-19T17:52:29.839Z,10.40
2022-12-19T17:55:00.182Z,10.30
2022-12-19T17:57:30.538Z,10.30
2022-12-19T18:00:00.900Z,10.40
2022-12-19T18:02:36.351Z,10.40
2022-12-19T18:05:08.127Z,10.40
2022-12-19T18:07:38.460Z,10.40
2022-12-19T18:10:17.738Z,10.40
2022-12-19T18:12:48.515Z,10.40
2022-12-19T18:15:19.858Z,10.40
2022-12-19T18:17:55.577Z,10.40
2022-12-19T18:20:32.351Z,10.40
2022-12-19T18:23:04.091Z,10.40
2022-12-19T18:25:35.988Z,10.40
2022-12-19T18:28:06.468Z,10.40
2022-12-19T18:30:37.282Z,10.40
2022-12-19T18:33:11.183Z,10.40
2022-12-19T18:35:44.492Z,10.50
2022-12-19T18:38:17.904Z,10.40
2022-12-19T18:40:49.620Z,10.50
2022-12-19T18:43:21.133Z,10.50
2022-12-19T18:45:55.230Z,10.40
2022-12-19T18:48:31.257Z,10.50
2022-12-19T18:51:03.942Z,10.50
2022-12-19T18:53:36.339Z,10.50
2022-12-19T18:56:08.829Z,10.50
2022-12-19T18:58:39.755Z,10.50
2022-12-19T19:01:15.789Z,10.50
2022-12-19T19:03:55.110Z,10.50
2022-12-19T19:06:27.640Z,10.50
2022-12-19T19:09:00.120Z,10.50
2022-12-19T19:11:54.467Z,10.50
2022-12-19T19:14:24.853Z,10.50
2022-12-19T19:16:56.063Z,10.50
2022-12-19T19:19:29.380Z,10.50
2022-12-19T19:21:59.869Z,10.50
2022-12-19T19:24:30.344Z,10.50
2022-12-19T19:27:00.949Z,10.40
2022-12-19T19:29:31.390Z,10.50
2022-12-19T19:32:01.999Z,10.50
2022-12-19T19:34:38.318Z,10.50
2022-12-19T19:37:12.195Z,10.50
2022-12-19T19:39:43.105Z,10.50
2022-12-19T19:42:13.497Z,10.50
2022-12-19T19:44:43.894Z,10.50
2022-12-19T19:47:14.368Z,10.50
2022-12-19T19:49:47.405Z,10.50
2022-12-19T19:52:17.787Z,10.50
2022-12-19T19:54:48.266Z,10.50
2022-12-19T19:57:18.640Z,10.50
2022-12-19T19:59:49.069Z,10.40
2022-12-19T20:02:20.215Z,10.50
2022-12-19T20:04:53.568Z,10.40
2022-12-19T20:07:24.272Z,10.40
2022-12-19T20:09:54.876Z,10.50
2022-12-19T20:12:25.540Z,10.50
2022-12-19T20:14:56.155Z,10.50
2022-12-19T20:17:26.800Z,10.50
2022-12-19T20:19:59.895Z,10.50
2022-12-19T20:22:31.322Z,10.50
2022-12-19T20:25:02.230Z,10.60
2022-12-19T20:27:32.556Z,10.60
2022-12-19T20:30:02.931Z,10.60
2022-12-19T20:32:33.568Z,10.60
2022-12-19T20:35:12.373Z,10.70
2022-12-19T20:37:44.999Z,10.60
2022-12-19T20:40:15.797Z,10.60
2022-12-19T20:42:46.127Z,10.60
2022-12-19T20:45:16.486Z,10.70
2022-12-19T20:47:46.765Z,10.70
2022-12-19T20:50:19.884Z,10.60
2022-12-19T20:52:50.230Z,10.70
2022-12-19T20:55:21.014Z,10.70
2022-12-19T20:57:51.319Z,10.70
2022-12-19T21:00:23.057Z,10.70
2022-12-19T21:03:26.321Z,10.80
2022-12-19T21:05:46.349Z,10.80
2022-12-19T21:08:16.647Z,10.80
2022-12-19T21:10:46.984Z,10.80
2022-12-19T21:13:17.697Z,10.80
2022-12-19T21:15:48.243Z,10.80
2022-12-19T21:18:18.568Z,10.90
2022-12-19T21:20:52.250Z,10.90
2022-12-19T21:23:22.860Z,10.80
2022-12-19T21:25:53.252Z,10.90
2022-12-19T21:28:23.673Z,10.90
2022-12-19T21:30:59.302Z,10.90
2022-12-19T21:33:30.197Z,10.90
2022-12-19T21:36:08.787Z,11.00
2022-12-19T21:38:39.183Z,11.00
2022-12-19T21:41:10.677Z,11.00
2022-12-19T21:43:41.508Z,11.00
2022-12-19T21:46:13.667Z,11.00
2022-12-19T21:48:45.640Z,11.00
2022-12-19T21:51:19.760Z,11.00
2022-12-19T21:53:50.548Z,11.00
2022-12-19T21:56:26.978Z,11.00
2022-12-19T21:58:59.065Z,11.00
2022-12-19T22:01:29.883Z,11.00
2022-12-19T22:04:02.965Z,11.00
2022-12-19T22:06:38.281Z,11.00
2022-12-19T22:09:10.762Z,11.00
2022-12-19T22:11:41.187Z,10.90
2022-12-19T22:14:13.179Z,11.00
2022-12-19T22:16:43.842Z,11.00
2022-12-19T22:19:16.574Z,11.00
2022-12-19T22:21:50.310Z,11.00
2022-12-19T22:24:21.016Z,11.00
2022-12-19T22:26:51.371Z,11.10
2022-12-19T22:29:21.889Z,11.10
2022-12-19T22:31:52.559Z,11.10
2022-12-19T22:34:24.279Z,11.10
2022-12-19T22:36:57.329Z,11.10
2022-12-19T22:39:27.927Z,11.10
2022-12-19T22:41:58.360Z,11.20
2022-12-19T22:44:28.680Z,11.10
2022-12-19T22:46:58.915Z,11.10
2022-12-19T22:49:29.240Z,11.10
2022-12-19T22:52:02.185Z,11.10
2022-12-19T22:54:32.517Z,11.20
2022-12-19T22:57:02.856Z,11.10
2022-12-19T22:59:33.214Z,11.10
2022-12-19T23:02:03.938Z,11.20
2022-12-19T23:04:35.105Z,11.20
2022-12-19T23:07:08.085Z,11.20
2022-12-19T23:09:38.421Z,11.20
2022-12-19T23:12:09.338Z,11.20
2022-12-19T23:14:39.643Z,11.10
2022-12-19T23:17:10.027Z,11.20
2022-12-19T23:19:40.449Z,11.10
2022-12-19T23:22:13.538Z,11.10
2022-12-19T23:24:44.921Z,11.20
2022-12-19T23:27:15.623Z,11.10
2022-12-19T23:29:46.381Z,11.20
2022-12-19T23:32:16.819Z,11.30
2022-12-19T23:34:47.308Z,11.20
2022-12-19T23:37:20.206Z,11.20
2022-12-19T23:39:50.605Z,11.30
2022-12-19T23:42:20.982Z,11.30
2022-12-19T23:44:51.331Z,11.30
2022-12-19T23:47:21.608Z,11.20
2022-12-19T23:49:51.893Z,11.20
2022-12-19T23:52:25.263Z,11.20
2022-12-19T23:54:55.632Z,11.30
2022-12-19T23:57:25.900Z,11.30
2022-12-19T23:59:56.255Z,11.30
